Terminal Aerodrome Forecast
Issued by NWS

Current Version | Previous Version | Text Only | Print | Product List | Glossary On
Versions: 1 2 3 4 5 6 7 8 9 10 11 12 13 14 15 16 17 18
035
FTUS43 KIND 042320
TAFLAF
TAF
KLAF 042320Z 0500/0524 35014G19KT P6SM BKN080
     FM050300 34012G18KT P6SM VCSH OVC070
     FM050500 33013G20KT P6SM VCSH OVC020
     FM050800 34013G20KT P6SM VCSH OVC008
     FM051100 35013G19KT P6SM OVC010
     FM051400 36013G19KT P6SM BKN035
     FM051600 36014G22KT P6SM SCT060
      AMD LTD TO CLD WIND AND VIS 0501/0513=

USA.gov is the U.S. government's official web portal to all federal, state and local government web resources and services.